sensor_id;sensor_type;location;lat;lon;timestamp;P1;durP1;ratioP1;P2;durP2;ratioP2
55655;SDS011;41530;52.382;5.270;2023-05-16T00:00:59;3.95;;;1.20;;
55655;SDS011;41530;52.382;5.270;2023-05-16T00:03:26;3.65;;;0.80;;
55655;SDS011;41530;52.382;5.270;2023-05-16T00:05:53;5.45;;;1.13;;
55655;SDS011;41530;52.382;5.270;2023-05-16T00:08:21;4.13;;;1.00;;
55655;SDS011;41530;52.382;5.270;2023-05-16T00:10:48;6.80;;;1.02;;
55655;SDS011;41530;52.382;5.270;2023-05-16T00:13:14;3.83;;;1.05;;
55655;SDS011;41530;52.382;5.270;2023-05-16T00:15:41;4.78;;;0.98;;
55655;SDS011;41530;52.382;5.270;2023-05-16T00:18:09;3.08;;;0.60;;
55655;SDS011;41530;52.382;5.270;2023-05-16T00:20:39;2.70;;;0.88;;
55655;SDS011;41530;52.382;5.270;2023-05-16T00:23:06;4.97;;;0.85;;
55655;SDS011;41530;52.382;5.270;2023-05-16T00:25:33;3.13;;;0.90;;
55655;SDS011;41530;52.382;5.270;2023-05-16T00:28:00;3.72;;;0.80;;
55655;SDS011;41530;52.382;5.270;2023-05-16T00:30:26;5.22;;;0.98;;
55655;SDS011;41530;52.382;5.270;2023-05-16T00:32:54;4.53;;;0.98;;
55655;SDS011;41530;52.382;5.270;2023-05-16T00:35:21;2.58;;;0.68;;
55655;SDS011;41530;52.382;5.270;2023-05-16T00:37:49;6.07;;;1.08;;
55655;SDS011;41530;52.382;5.270;2023-05-16T00:40:16;6.03;;;0.82;;
55655;SDS011;41530;52.382;5.270;2023-05-16T00:42:42;6.57;;;1.25;;
55655;SDS011;41530;52.382;5.270;2023-05-16T00:45:09;4.60;;;0.98;;
55655;SDS011;41530;52.382;5.270;2023-05-16T00:47:36;7.03;;;1.30;;
55655;SDS011;41530;52.382;5.270;2023-05-16T00:50:03;4.28;;;0.70;;
55655;SDS011;41530;52.382;5.270;2023-05-16T00:52:30;4.25;;;1.00;;
55655;SDS011;41530;52.382;5.270;2023-05-16T00:54:59;4.57;;;0.95;;
55655;SDS011;41530;52.382;5.270;2023-05-16T00:57:26;5.00;;;1.00;;
55655;SDS011;41530;52.382;5.270;2023-05-16T00:59:53;4.15;;;1.00;;
55655;SDS011;41530;52.382;5.270;2023-05-16T01:02:19;4.13;;;0.80;;
55655;SDS011;41530;52.382;5.270;2023-05-16T01:04:46;6.03;;;1.15;;
55655;SDS011;41530;52.382;5.270;2023-05-16T01:07:14;4.43;;;0.82;;
55655;SDS011;41530;52.382;5.270;2023-05-16T01:09:41;6.55;;;1.02;;
55655;SDS011;41530;52.382;5.270;2023-05-16T01:17:28;5.32;;;1.00;;
55655;SDS011;41530;52.382;5.270;2023-05-16T01:28:12;5.40;;;1.10;;
55655;SDS011;41530;52.382;5.270;2023-05-16T01:30:41;4.43;;;1.73;;
55655;SDS011;41530;52.382;5.270;2023-05-16T01:33:07;5.03;;;1.10;;
55655;SDS011;41530;52.382;5.270;2023-05-16T01:36:05;3.85;;;0.95;;
55655;SDS011;41530;52.382;5.270;2023-05-16T01:38:41;4.45;;;0.80;;
55655;SDS011;41530;52.382;5.270;2023-05-16T01:47:49;3.50;;;0.90;;
55655;SDS011;41530;52.382;5.270;2023-05-16T01:50:33;5.68;;;1.00;;
55655;SDS011;41530;52.382;5.270;2023-05-16T01:53:19;2.67;;;0.75;;
55655;SDS011;41530;52.382;5.270;2023-05-16T01:56:16;6.88;;;0.98;;
55655;SDS011;41530;52.382;5.270;2023-05-16T01:59:26;3.00;;;0.70;;
55655;SDS011;41530;52.382;5.270;2023-05-16T02:01:57;4.80;;;0.88;;
55655;SDS011;41530;52.382;5.270;2023-05-16T02:04:40;5.53;;;0.90;;
55655;SDS011;41530;52.382;5.270;2023-05-16T02:07:18;4.68;;;0.88;;
55655;SDS011;41530;52.382;5.270;2023-05-16T02:10:08;5.60;;;0.80;;
55655;SDS011;41530;52.382;5.270;2023-05-16T02:12:56;2.83;;;0.77;;
55655;SDS011;41530;52.382;5.270;2023-05-16T02:15:32;4.53;;;0.90;;
55655;SDS011;41530;52.382;5.270;2023-05-16T02:18:11;3.30;;;1.02;;
55655;SDS011;41530;52.382;5.270;2023-05-16T02:20:41;7.95;;;0.80;;
55655;SDS011;41530;52.382;5.270;2023-05-16T02:23:22;4.22;;;1.00;;
55655;SDS011;41530;52.382;5.270;2023-05-16T02:25:56;4.70;;;0.80;;
55655;SDS011;41530;52.382;5.270;2023-05-16T02:28:29;3.63;;;0.77;;
55655;SDS011;41530;52.382;5.270;2023-05-16T02:31:05;3.03;;;0.90;;
55655;SDS011;41530;52.382;5.270;2023-05-16T02:36:34;3.33;;;0.80;;
55655;SDS011;41530;52.382;5.270;2023-05-16T02:39:17;7.55;;;1.00;;
55655;SDS011;41530;52.382;5.270;2023-05-16T02:41:56;3.42;;;0.93;;
55655;SDS011;41530;52.382;5.270;2023-05-16T02:44:25;4.18;;;0.90;;
55655;SDS011;41530;52.382;5.270;2023-05-16T02:46:55;3.78;;;1.02;;
55655;SDS011;41530;52.382;5.270;2023-05-16T02:49:27;3.70;;;0.90;;
55655;SDS011;41530;52.382;5.270;2023-05-16T02:52:19;4.45;;;1.10;;
55655;SDS011;41530;52.382;5.270;2023-05-16T02:55:00;4.50;;;0.90;;
55655;SDS011;41530;52.382;5.270;2023-05-16T02:57:30;5.43;;;1.00;;
55655;SDS011;41530;52.382;5.270;2023-05-16T03:00:29;4.07;;;0.82;;
55655;SDS011;41530;52.382;5.270;2023-05-16T03:03:15;2.30;;;0.50;;
55655;SDS011;41530;52.382;5.270;2023-05-16T03:05:45;4.10;;;0.90;;
55655;SDS011;41530;52.382;5.270;2023-05-16T03:08:18;7.45;;;1.00;;
55655;SDS011;41530;52.382;5.270;2023-05-16T03:11:00;4.65;;;0.85;;
55655;SDS011;41530;52.382;5.270;2023-05-16T03:13:29;3.33;;;0.80;;
55655;SDS011;41530;52.382;5.270;2023-05-16T03:16:09;2.72;;;0.70;;
55655;SDS011;41530;52.382;5.270;2023-05-16T03:18:55;2.72;;;0.77;;
55655;SDS011;41530;52.382;5.270;2023-05-16T03:21:24;6.70;;;0.98;;
55655;SDS011;41530;52.382;5.270;2023-05-16T03:23:54;3.60;;;0.80;;
55655;SDS011;41530;52.382;5.270;2023-05-16T03:26:33;3.20;;;0.90;;
55655;SDS011;41530;52.382;5.270;2023-05-16T03:29:07;4.00;;;0.88;;
55655;SDS011;41530;52.382;5.270;2023-05-16T03:31:45;2.20;;;0.60;;
55655;SDS011;41530;52.382;5.270;2023-05-16T03:37:08;3.08;;;0.68;;
55655;SDS011;41530;52.382;5.270;2023-05-16T03:42:14;3.53;;;0.90;;
55655;SDS011;41530;52.382;5.270;2023-05-16T03:45:04;4.85;;;0.88;;
55655;SDS011;41530;52.382;5.270;2023-05-16T03:47:54;3.08;;;0.80;;
55655;SDS011;41530;52.382;5.270;2023-05-16T03:50:25;3.97;;;0.70;;
55655;SDS011;41530;52.382;5.270;2023-05-16T03:52:56;4.75;;;0.80;;
55655;SDS011;41530;52.382;5.270;2023-05-16T03:55:30;4.82;;;0.77;;
55655;SDS011;41530;52.382;5.270;2023-05-16T03:58:08;6.78;;;1.00;;
55655;SDS011;41530;52.382;5.270;2023-05-16T04:00:36;5.20;;;0.88;;
55655;SDS011;41530;52.382;5.270;2023-05-16T04:03:16;4.43;;;1.00;;
55655;SDS011;41530;52.382;5.270;2023-05-16T04:05:49;5.50;;;1.10;;
55655;SDS011;41530;52.382;5.270;2023-05-16T04:08:44;3.78;;;0.70;;
55655;SDS011;41530;52.382;5.270;2023-05-16T04:11:17;3.35;;;0.73;;
55655;SDS011;41530;52.382;5.270;2023-05-16T04:13:52;3.45;;;0.70;;
55655;SDS011;41530;52.382;5.270;2023-05-16T04:16:33;8.00;;;1.00;;
55655;SDS011;41530;52.382;5.270;2023-05-16T04:19:25;2.35;;;0.77;;
55655;SDS011;41530;52.382;5.270;2023-05-16T04:22:08;5.10;;;0.68;;
55655;SDS011;41530;52.382;5.270;2023-05-16T04:24:45;5.30;;;1.00;;
55655;SDS011;41530;52.382;5.270;2023-05-16T04:27:21;4.47;;;0.90;;
55655;SDS011;41530;52.382;5.270;2023-05-16T04:29:52;3.80;;;0.82;;
55655;SDS011;41530;52.382;5.270;2023-05-16T04:32:42;4.32;;;0.73;;
55655;SDS011;41530;52.382;5.270;2023-05-16T04:35:21;4.43;;;0.82;;
55655;SDS011;41530;52.382;5.270;2023-05-16T04:38:18;2.83;;;0.63;;
55655;SDS011;41530;52.382;5.270;2023-05-16T04:41:07;3.45;;;0.73;;
55655;SDS011;41530;52.382;5.270;2023-05-16T04:43:47;5.53;;;1.02;;
55655;SDS011;41530;52.382;5.270;2023-05-16T04:46:28;2.17;;;0.60;;
55655;SDS011;41530;52.382;5.270;2023-05-16T04:49:18;3.00;;;0.80;;
55655;SDS011;41530;52.382;5.270;2023-05-16T04:52:02;3.38;;;0.60;;
55655;SDS011;41530;52.382;5.270;2023-05-16T04:54:41;6.75;;;1.00;;
55655;SDS011;41530;52.382;5.270;2023-05-16T04:57:17;8.00;;;0.80;;
55655;SDS011;41530;52.382;5.270;2023-05-16T04:59:46;5.93;;;0.75;;
55655;SDS011;41530;52.382;5.270;2023-05-16T05:02:24;4.70;;;0.93;;
55655;SDS011;41530;52.382;5.270;2023-05-16T05:05:00;7.80;;;0.93;;
55655;SDS011;41530;52.382;5.270;2023-05-16T05:07:47;3.25;;;0.60;;
55655;SDS011;41530;52.382;5.270;2023-05-16T05:10:16;5.35;;;0.95;;
55655;SDS011;41530;52.382;5.270;2023-05-16T05:13:02;5.35;;;0.88;;
55655;SDS011;41530;52.382;5.270;2023-05-16T05:15:37;3.60;;;0.95;;
55655;SDS011;41530;52.382;5.270;2023-05-16T05:24:00;3.47;;;0.90;;
55655;SDS011;41530;52.382;5.270;2023-05-16T05:26:32;2.47;;;0.85;;
55655;SDS011;41530;52.382;5.270;2023-05-16T05:29:13;3.10;;;0.50;;
55655;SDS011;41530;52.382;5.270;2023-05-16T05:31:53;2.58;;;0.80;;
55655;SDS011;41530;52.382;5.270;2023-05-16T05:34:37;2.78;;;0.82;;
55655;SDS011;41530;52.382;5.270;2023-05-16T05:37:17;2.78;;;0.60;;
55655;SDS011;41530;52.382;5.270;2023-05-16T05:40:09;4.38;;;0.68;;
55655;SDS011;41530;52.382;5.270;2023-05-16T05:43:09;7.85;;;0.90;;
55655;SDS011;41530;52.382;5.270;2023-05-16T05:45:46;3.92;;;0.70;;
55655;SDS011;41530;52.382;5.270;2023-05-16T05:48:20;3.75;;;0.60;;
55655;SDS011;41530;52.382;5.270;2023-05-16T05:50:48;5.47;;;0.90;;
55655;SDS011;41530;52.382;5.270;2023-05-16T05:53:21;4.93;;;0.70;;
55655;SDS011;41530;52.382;5.270;2023-05-16T05:56:03;4.38;;;0.63;;
55655;SDS011;41530;52.382;5.270;2023-05-16T05:58:36;3.95;;;0.82;;
55655;SDS011;41530;52.382;5.270;2023-05-16T06:01:23;2.97;;;0.65;;
55655;SDS011;41530;52.382;5.270;2023-05-16T06:04:03;2.33;;;0.63;;
55655;SDS011;41530;52.382;5.270;2023-05-16T06:06:46;9.13;;;1.05;;
55655;SDS011;41530;52.382;5.270;2023-05-16T06:11:55;4.80;;;0.70;;
55655;SDS011;41530;52.382;5.270;2023-05-16T06:14:26;3.17;;;0.70;;
55655;SDS011;41530;52.382;5.270;2023-05-16T06:17:06;4.57;;;0.80;;
55655;SDS011;41530;52.382;5.270;2023-05-16T06:19:46;5.05;;;0.70;;
55655;SDS011;41530;52.382;5.270;2023-05-16T06:22:18;4.70;;;0.73;;
55655;SDS011;41530;52.382;5.270;2023-05-16T06:24:52;3.03;;;0.60;;
55655;SDS011;41530;52.382;5.270;2023-05-16T06:27:26;1.77;;;0.55;;
55655;SDS011;41530;52.382;5.270;2023-05-16T06:30:06;2.05;;;0.60;;
55655;SDS011;41530;52.382;5.270;2023-05-16T06:32:54;4.13;;;0.50;;
55655;SDS011;41530;52.382;5.270;2023-05-16T06:35:23;1.17;;;0.50;;
55655;SDS011;41530;52.382;5.270;2023-05-16T06:37:56;3.30;;;0.73;;
55655;SDS011;41530;52.382;5.270;2023-05-16T06:40:24;4.07;;;0.50;;
55655;SDS011;41530;52.382;5.270;2023-05-16T06:42:59;1.52;;;0.77;;
55655;SDS011;41530;52.382;5.270;2023-05-16T06:45:33;1.85;;;0.57;;
55655;SDS011;41530;52.382;5.270;2023-05-16T06:47:59;2.78;;;0.40;;
55655;SDS011;41530;52.382;5.270;2023-05-16T06:50:31;3.30;;;0.60;;
55655;SDS011;41530;52.382;5.270;2023-05-16T06:53:04;1.30;;;0.50;;
55655;SDS011;41530;52.382;5.270;2023-05-16T06:55:45;1.73;;;0.55;;
55655;SDS011;41530;52.382;5.270;2023-05-16T06:58:16;3.13;;;0.70;;
55655;SDS011;41530;52.382;5.270;2023-05-16T07:03:56;2.05;;;0.55;;
55655;SDS011;41530;52.382;5.270;2023-05-16T07:06:42;2.13;;;0.63;;
55655;SDS011;41530;52.382;5.270;2023-05-16T07:09:18;3.25;;;0.50;;
55655;SDS011;41530;52.382;5.270;2023-05-16T07:11:53;2.45;;;0.70;;
55655;SDS011;41530;52.382;5.270;2023-05-16T07:14:37;2.67;;;0.50;;
55655;SDS011;41530;52.382;5.270;2023-05-16T07:17:17;1.70;;;0.40;;
55655;SDS011;41530;52.382;5.270;2023-05-16T07:19:46;2.92;;;0.60;;
55655;SDS011;41530;52.382;5.270;2023-05-16T07:22:21;1.40;;;0.43;;
55655;SDS011;41530;52.382;5.270;2023-05-16T07:24:50;2.35;;;0.70;;
55655;SDS011;41530;52.382;5.270;2023-05-16T07:27:33;1.70;;;0.50;;
55655;SDS011;41530;52.382;5.270;2023-05-16T07:30:13;1.95;;;0.60;;
55655;SDS011;41530;52.382;5.270;2023-05-16T07:32:40;1.15;;;0.60;;
55655;SDS011;41530;52.382;5.270;2023-05-16T07:35:10;3.95;;;0.60;;
55655;SDS011;41530;52.382;5.270;2023-05-16T07:37:49;2.30;;;0.52;;
55655;SDS011;41530;52.382;5.270;2023-05-16T07:40:26;1.42;;;0.50;;
55655;SDS011;41530;52.382;5.270;2023-05-16T07:43:15;1.13;;;0.40;;
55655;SDS011;41530;52.382;5.270;2023-05-16T07:45:43;1.20;;;0.40;;
55655;SDS011;41530;52.382;5.270;2023-05-16T07:48:36;1.30;;;0.40;;
55655;SDS011;41530;52.382;5.270;2023-05-16T07:51:16;2.75;;;0.38;;
55655;SDS011;41530;52.382;5.270;2023-05-16T07:53:44;1.20;;;0.40;;
55655;SDS011;41530;52.382;5.270;2023-05-16T07:56:22;0.70;;;0.40;;
55655;SDS011;41530;52.382;5.270;2023-05-16T07:59:13;1.00;;;0.43;;
55655;SDS011;41530;52.382;5.270;2023-05-16T08:02:13;0.85;;;0.40;;
55655;SDS011;41530;52.382;5.270;2023-05-16T08:05:04;0.90;;;0.40;;
55655;SDS011;41530;52.382;5.270;2023-05-16T08:07:33;1.20;;;0.40;;
55655;SDS011;41530;52.382;5.270;2023-05-16T08:10:09;1.10;;;0.50;;
55655;SDS011;41530;52.382;5.270;2023-05-16T08:12:45;1.52;;;0.40;;
55655;SDS011;41530;52.382;5.270;2023-05-16T08:15:31;1.00;;;0.40;;
55655;SDS011;41530;52.382;5.270;2023-05-16T08:20:55;0.85;;;0.40;;
55655;SDS011;41530;52.382;5.270;2023-05-16T08:23:35;1.45;;;0.32;;
55655;SDS011;41530;52.382;5.270;2023-05-16T08:26:07;0.68;;;0.40;;
55655;SDS011;41530;52.382;5.270;2023-05-16T08:28:37;1.75;;;0.50;;
55655;SDS011;41530;52.382;5.270;2023-05-16T08:31:17;1.95;;;0.60;;
55655;SDS011;41530;52.382;5.270;2023-05-16T08:33:52;0.95;;;0.52;;
55655;SDS011;41530;52.382;5.270;2023-05-16T08:36:25;2.45;;;0.40;;
55655;SDS011;41530;52.382;5.270;2023-05-16T08:39:14;1.67;;;0.57;;
55655;SDS011;41530;52.382;5.270;2023-05-16T08:41:46;1.75;;;0.60;;
55655;SDS011;41530;52.382;5.270;2023-05-16T08:44:33;1.10;;;0.40;;
55655;SDS011;41530;52.382;5.270;2023-05-16T08:47:22;0.43;;;0.40;;
55655;SDS011;41530;52.382;5.270;2023-05-16T08:49:58;1.25;;;0.47;;
55655;SDS011;41530;52.382;5.270;2023-05-16T08:52:51;1.48;;;0.60;;
55655;SDS011;41530;52.382;5.270;2023-05-16T08:55:45;1.02;;;0.47;;
55655;SDS011;41530;52.382;5.270;2023-05-16T08:58:24;0.77;;;0.50;;
55655;SDS011;41530;52.382;5.270;2023-05-16T09:00:54;1.83;;;0.63;;
55655;SDS011;41530;52.382;5.270;2023-05-16T09:03:55;1.35;;;0.60;;
55655;SDS011;41530;52.382;5.270;2023-05-16T09:06:38;1.70;;;0.50;;
55655;SDS011;41530;52.382;5.270;2023-05-16T09:09:15;1.98;;;0.50;;
55655;SDS011;41530;52.382;5.270;2023-05-16T09:11:53;0.93;;;0.50;;
55655;SDS011;41530;52.382;5.270;2023-05-16T09:14:25;1.52;;;0.40;;
55655;SDS011;41530;52.382;5.270;2023-05-16T09:17:10;0.73;;;0.40;;
55655;SDS011;41530;52.382;5.270;2023-05-16T09:19:50;0.52;;;0.40;;
55655;SDS011;41530;52.382;5.270;2023-05-16T09:22:37;1.02;;;0.40;;
55655;SDS011;41530;52.382;5.270;2023-05-16T09:25:21;1.60;;;0.50;;
55655;SDS011;41530;52.382;5.270;2023-05-16T09:28:00;1.65;;;0.40;;
55655;SDS011;41530;52.382;5.270;2023-05-16T09:30:46;0.63;;;0.30;;
55655;SDS011;41530;52.382;5.270;2023-05-16T09:33:45;0.95;;;0.45;;
55655;SDS011;41530;52.382;5.270;2023-05-16T09:36:41;1.63;;;0.57;;
55655;SDS011;41530;52.382;5.270;2023-05-16T09:39:15;1.33;;;0.40;;
55655;SDS011;41530;52.382;5.270;2023-05-16T09:42:13;0.90;;;0.38;;
55655;SDS011;41530;52.382;5.270;2023-05-16T09:44:51;0.95;;;0.32;;
55655;SDS011;41530;52.382;5.270;2023-05-16T09:47:38;3.42;;;0.28;;
55655;SDS011;41530;52.382;5.270;2023-05-16T09:50:22;0.50;;;0.30;;
55655;SDS011;41530;52.382;5.270;2023-05-16T09:53:05;1.05;;;0.40;;
55655;SDS011;41530;52.382;5.270;2023-05-16T09:56:05;1.73;;;0.40;;
55655;SDS011;41530;52.382;5.270;2023-05-16T09:58:50;0.60;;;0.30;;
55655;SDS011;41530;52.382;5.270;2023-05-16T10:01:27;1.85;;;0.40;;
55655;SDS011;41530;52.382;5.270;2023-05-16T10:04:11;1.23;;;0.40;;
55655;SDS011;41530;52.382;5.270;2023-05-16T10:06:47;0.95;;;0.50;;
55655;SDS011;41530;52.382;5.270;2023-05-16T10:09:20;1.20;;;0.40;;
55655;SDS011;41530;52.382;5.270;2023-05-16T10:12:17;1.27;;;0.50;;
55655;SDS011;41530;52.382;5.270;2023-05-16T10:15:01;2.47;;;0.30;;
55655;SDS011;41530;52.382;5.270;2023-05-16T10:17:53;0.45;;;0.30;;
55655;SDS011;41530;52.382;5.270;2023-05-16T10:20:31;1.95;;;0.30;;
55655;SDS011;41530;52.382;5.270;2023-05-16T10:23:33;1.23;;;0.25;;
55655;SDS011;41530;52.382;5.270;2023-05-16T10:26:12;1.55;;;0.50;;
55655;SDS011;41530;52.382;5.270;2023-05-16T10:29:04;0.70;;;0.30;;
55655;SDS011;41530;52.382;5.270;2023-05-16T10:31:39;0.43;;;0.20;;
55655;SDS011;41530;52.382;5.270;2023-05-16T10:34:12;0.95;;;0.38;;
55655;SDS011;41530;52.382;5.270;2023-05-16T10:36:46;0.80;;;0.30;;
55655;SDS011;41530;52.382;5.270;2023-05-16T10:39:24;0.60;;;0.30;;
55655;SDS011;41530;52.382;5.270;2023-05-16T10:41:55;1.88;;;0.50;;
55655;SDS011;41530;52.382;5.270;2023-05-16T10:44:27;0.40;;;0.20;;
55655;SDS011;41530;52.382;5.270;2023-05-16T10:47:28;0.60;;;0.30;;
55655;SDS011;41530;52.382;5.270;2023-05-16T10:50:01;0.85;;;0.30;;
55655;SDS011;41530;52.382;5.270;2023-05-16T10:52:34;0.40;;;0.32;;
55655;SDS011;41530;52.382;5.270;2023-05-16T10:55:20;0.82;;;0.50;;
55655;SDS011;41530;52.382;5.270;2023-05-16T10:58:12;1.13;;;0.30;;
55655;SDS011;41530;52.382;5.270;2023-05-16T11:04:05;0.77;;;0.32;;
55655;SDS011;41530;52.382;5.270;2023-05-16T11:06:53;0.65;;;0.30;;
55655;SDS011;41530;52.382;5.270;2023-05-16T11:09:40;0.47;;;0.30;;
55655;SDS011;41530;52.382;5.270;2023-05-16T11:12:09;1.20;;;0.25;;
55655;SDS011;41530;52.382;5.270;2023-05-16T11:14:46;1.00;;;0.40;;
55655;SDS011;41530;52.382;5.270;2023-05-16T11:17:28;1.35;;;0.40;;
55655;SDS011;41530;52.382;5.270;2023-05-16T11:20:33;0.90;;;0.50;;
55655;SDS011;41530;52.382;5.270;2023-05-16T11:23:28;0.82;;;0.30;;
55655;SDS011;41530;52.382;5.270;2023-05-16T11:26:23;1.77;;;0.50;;
55655;SDS011;41530;52.382;5.270;2023-05-16T11:28:56;1.35;;;0.30;;
55655;SDS011;41530;52.382;5.270;2023-05-16T11:31:32;0.77;;;0.40;;
55655;SDS011;41530;52.382;5.270;2023-05-16T11:34:36;1.10;;;0.43;;
55655;SDS011;41530;52.382;5.270;2023-05-16T11:37:21;1.35;;;0.43;;
55655;SDS011;41530;52.382;5.270;2023-05-16T11:39:57;0.60;;;0.30;;
55655;SDS011;41530;52.382;5.270;2023-05-16T11:42:34;1.00;;;0.30;;
55655;SDS011;41530;52.382;5.270;2023-05-16T11:48:51;1.15;;;0.40;;
55655;SDS011;41530;52.382;5.270;2023-05-16T11:51:30;1.23;;;0.30;;
55655;SDS011;41530;52.382;5.270;2023-05-16T11:54:02;1.45;;;0.30;;
55655;SDS011;41530;52.382;5.270;2023-05-16T11:56:34;1.05;;;0.30;;
55655;SDS011;41530;52.382;5.270;2023-05-16T11:59:07;0.47;;;0.30;;
55655;SDS011;41530;52.382;5.270;2023-05-16T12:01:43;0.30;;;0.30;;
55655;SDS011;41530;52.382;5.270;2023-05-16T12:04:13;0.30;;;0.30;;
55655;SDS011;41530;52.382;5.270;2023-05-16T12:07:02;0.63;;;0.30;;
55655;SDS011;41530;52.382;5.270;2023-05-16T12:09:39;0.28;;;0.25;;
55655;SDS011;41530;52.382;5.270;2023-05-16T12:12:08;0.55;;;0.30;;
55655;SDS011;41530;52.382;5.270;2023-05-16T12:17:57;0.43;;;0.30;;
55655;SDS011;41530;52.382;5.270;2023-05-16T12:21:02;0.43;;;0.30;;
55655;SDS011;41530;52.382;5.270;2023-05-16T12:23:32;1.10;;;0.30;;
55655;SDS011;41530;52.382;5.270;2023-05-16T12:26:25;0.60;;;0.30;;
55655;SDS011;41530;52.382;5.270;2023-05-16T12:29:15;0.30;;;0.20;;
55655;SDS011;41530;52.382;5.270;2023-05-16T12:31:51;0.40;;;0.40;;
55655;SDS011;41530;52.382;5.270;2023-05-16T12:35:00;1.13;;;0.20;;
55655;SDS011;41530;52.382;5.270;2023-05-16T12:37:31;0.68;;;0.40;;
55655;SDS011;41530;52.382;5.270;2023-05-16T12:39:59;1.15;;;0.45;;
55655;SDS011;41530;52.382;5.270;2023-05-16T12:42:51;0.98;;;0.40;;
55655;SDS011;41530;52.382;5.270;2023-05-16T12:45:48;0.55;;;0.30;;
55655;SDS011;41530;52.382;5.270;2023-05-16T12:48:32;0.65;;;0.30;;
55655;SDS011;41530;52.382;5.270;2023-05-16T12:51:15;0.90;;;0.40;;
55655;SDS011;41530;52.382;5.270;2023-05-16T12:53:53;0.75;;;0.30;;
55655;SDS011;41530;52.382;5.270;2023-05-16T12:56:41;1.55;;;0.45;;
55655;SDS011;41530;52.382;5.270;2023-05-16T12:59:23;0.82;;;0.40;;
55655;SDS011;41530;52.382;5.270;2023-05-16T13:02:12;0.75;;;0.40;;
55655;SDS011;41530;52.382;5.270;2023-05-16T13:04:39;0.43;;;0.20;;
55655;SDS011;41530;52.382;5.270;2023-05-16T13:07:20;2.05;;;0.40;;
55655;SDS011;41530;52.382;5.270;2023-05-16T13:09:48;0.75;;;0.30;;
55655;SDS011;41530;52.382;5.270;2023-05-16T13:12:17;0.35;;;0.25;;
55655;SDS011;41530;52.382;5.270;2023-05-16T13:14:58;0.50;;;0.40;;
55655;SDS011;41530;52.382;5.270;2023-05-16T13:17:38;0.82;;;0.35;;
55655;SDS011;41530;52.382;5.270;2023-05-16T13:20:18;0.30;;;0.20;;
55655;SDS011;41530;52.382;5.270;2023-05-16T13:22:59;1.63;;;0.40;;
55655;SDS011;41530;52.382;5.270;2023-05-16T13:28:34;2.78;;;0.30;;
55655;SDS011;41530;52.382;5.270;2023-05-16T13:31:08;0.90;;;0.28;;
55655;SDS011;41530;52.382;5.270;2023-05-16T13:33:37;0.90;;;0.35;;
55655;SDS011;41530;52.382;5.270;2023-05-16T13:36:08;1.00;;;0.20;;
55655;SDS011;41530;52.382;5.270;2023-05-16T13:38:41;0.88;;;0.40;;
55655;SDS011;41530;52.382;5.270;2023-05-16T13:41:25;0.68;;;0.30;;
55655;SDS011;41530;52.382;5.270;2023-05-16T13:43:54;0.65;;;0.30;;
55655;SDS011;41530;52.382;5.270;2023-05-16T13:46:29;1.42;;;0.32;;
55655;SDS011;41530;52.382;5.270;2023-05-16T13:49:30;1.60;;;0.30;;
55655;SDS011;41530;52.382;5.270;2023-05-16T13:52:04;0.60;;;0.30;;
55655;SDS011;41530;52.382;5.270;2023-05-16T13:54:43;0.55;;;0.30;;
55655;SDS011;41530;52.382;5.270;2023-05-16T13:57:34;0.50;;;0.25;;
55655;SDS011;41530;52.382;5.270;2023-05-16T14:00:12;0.80;;;0.40;;
55655;SDS011;41530;52.382;5.270;2023-05-16T14:03:13;2.35;;;0.20;;
55655;SDS011;41530;52.382;5.270;2023-05-16T14:05:42;0.80;;;0.20;;
55655;SDS011;41530;52.382;5.270;2023-05-16T14:11:20;0.70;;;0.30;;
55655;SDS011;41530;52.382;5.270;2023-05-16T14:14:11;0.47;;;0.20;;
55655;SDS011;41530;52.382;5.270;2023-05-16T14:16:43;0.38;;;0.30;;
55655;SDS011;41530;52.382;5.270;2023-05-16T14:19:29;0.77;;;0.30;;
55655;SDS011;41530;52.382;5.270;2023-05-16T14:22:08;1.05;;;0.30;;
55655;SDS011;41530;52.382;5.270;2023-05-16T14:24:46;0.43;;;0.20;;
55655;SDS011;41530;52.382;5.270;2023-05-16T14:27:24;0.22;;;0.20;;
55655;SDS011;41530;52.382;5.270;2023-05-16T14:29:56;0.45;;;0.30;;
55655;SDS011;41530;52.382;5.270;2023-05-16T14:32:31;0.98;;;0.50;;
55655;SDS011;41530;52.382;5.270;2023-05-16T14:35:00;0.52;;;0.20;;
55655;SDS011;41530;52.382;5.270;2023-05-16T14:37:40;0.55;;;0.30;;
55655;SDS011;41530;52.382;5.270;2023-05-16T14:40:14;0.80;;;0.45;;
55655;SDS011;41530;52.382;5.270;2023-05-16T14:42:49;0.75;;;0.30;;
55655;SDS011;41530;52.382;5.270;2023-05-16T14:45:29;2.75;;;0.38;;
55655;SDS011;41530;52.382;5.270;2023-05-16T14:48:06;0.38;;;0.20;;
55655;SDS011;41530;52.382;5.270;2023-05-16T14:51:07;0.77;;;0.60;;
55655;SDS011;41530;52.382;5.270;2023-05-16T14:53:41;0.43;;;0.20;;
55655;SDS011;41530;52.382;5.270;2023-05-16T14:56:14;1.02;;;0.32;;
55655;SDS011;41530;52.382;5.270;2023-05-16T14:58:56;0.38;;;0.35;;
55655;SDS011;41530;52.382;5.270;2023-05-16T15:01:27;0.70;;;0.30;;
55655;SDS011;41530;52.382;5.270;2023-05-16T15:04:11;1.60;;;0.20;;
55655;SDS011;41530;52.382;5.270;2023-05-16T15:06:52;0.77;;;0.32;;
55655;SDS011;41530;52.382;5.270;2023-05-16T15:09:33;2.00;;;0.20;;
55655;SDS011;41530;52.382;5.270;2023-05-16T15:12:19;0.20;;;0.20;;
55655;SDS011;41530;52.382;5.270;2023-05-16T15:15:05;0.38;;;0.20;;
55655;SDS011;41530;52.382;5.270;2023-05-16T15:18:39;0.60;;;0.35;;
55655;SDS011;41530;52.382;5.270;2023-05-16T15:21:00;0.30;;;0.20;;
55655;SDS011;41530;52.382;5.270;2023-05-16T15:23:35;1.95;;;0.32;;
55655;SDS011;41530;52.382;5.270;2023-05-16T15:26:16;0.40;;;0.30;;
55655;SDS011;41530;52.382;5.270;2023-05-16T15:28:47;0.55;;;0.20;;
55655;SDS011;41530;52.382;5.270;2023-05-16T15:31:39;0.47;;;0.20;;
55655;SDS011;41530;52.382;5.270;2023-05-16T15:34:08;0.45;;;0.20;;
55655;SDS011;41530;52.382;5.270;2023-05-16T15:36:36;0.70;;;0.30;;
55655;SDS011;41530;52.382;5.270;2023-05-16T15:39:21;0.25;;;0.25;;
55655;SDS011;41530;52.382;5.270;2023-05-16T15:42:37;0.30;;;0.20;;
55655;SDS011;41530;52.382;5.270;2023-05-16T15:45:32;0.88;;;0.30;;
55655;SDS011;41530;52.382;5.270;2023-05-16T15:50:46;0.50;;;0.30;;
55655;SDS011;41530;52.382;5.270;2023-05-16T15:53:22;0.60;;;0.22;;
55655;SDS011;41530;52.382;5.270;2023-05-16T15:56:07;0.68;;;0.30;;
55655;SDS011;41530;52.382;5.270;2023-05-16T15:59:07;0.80;;;0.30;;
55655;SDS011;41530;52.382;5.270;2023-05-16T16:02:00;0.30;;;0.30;;
55655;SDS011;41530;52.382;5.270;2023-05-16T16:05:02;0.30;;;0.20;;
55655;SDS011;41530;52.382;5.270;2023-05-16T16:07:42;3.15;;;0.40;;
55655;SDS011;41530;52.382;5.270;2023-05-16T16:10:32;1.80;;;0.45;;
55655;SDS011;41530;52.382;5.270;2023-05-16T16:13:31;0.60;;;0.30;;
55655;SDS011;41530;52.382;5.270;2023-05-16T16:16:12;0.95;;;0.40;;
55655;SDS011;41530;52.382;5.270;2023-05-16T16:18:55;0.47;;;0.40;;
55655;SDS011;41530;52.382;5.270;2023-05-16T16:21:39;2.15;;;0.30;;
55655;SDS011;41530;52.382;5.270;2023-05-16T16:24:25;1.40;;;0.30;;
55655;SDS011;41530;52.382;5.270;2023-05-16T16:27:06;0.22;;;0.22;;
55655;SDS011;41530;52.382;5.270;2023-05-16T16:29:43;2.40;;;0.30;;
55655;SDS011;41530;52.382;5.270;2023-05-16T16:32:31;0.40;;;0.40;;
55655;SDS011;41530;52.382;5.270;2023-05-16T16:35:27;5.25;;;0.60;;
55655;SDS011;41530;52.382;5.270;2023-05-16T16:38:09;0.30;;;0.30;;
55655;SDS011;41530;52.382;5.270;2023-05-16T16:43:51;0.35;;;0.30;;
55655;SDS011;41530;52.382;5.270;2023-05-16T16:46:29;0.77;;;0.63;;
55655;SDS011;41530;52.382;5.270;2023-05-16T16:48:59;0.47;;;0.20;;
55655;SDS011;41530;52.382;5.270;2023-05-16T16:58:18;0.90;;;0.28;;
55655;SDS011;41530;52.382;5.270;2023-05-16T17:00:56;2.97;;;0.57;;
55655;SDS011;41530;52.382;5.270;2023-05-16T17:03:44;0.35;;;0.20;;
55655;SDS011;41530;52.382;5.270;2023-05-16T17:06:34;2.53;;;0.50;;
55655;SDS011;41530;52.382;5.270;2023-05-16T17:09:36;2.35;;;0.60;;
55655;SDS011;41530;52.382;5.270;2023-05-16T17:12:19;1.48;;;0.50;;